Flight Track Log - Related Links

Times and Time Zones

All times are in EDT time to prevent confusion due to time zone crossing. See the N960DL flight status page for this flight to view local times or setup timezone preferences in your user account.


Time Position Orientation Groundspeed Altitude Reporting Facility
EDT Latitude Longitude Course Direction KTS MPH feet Rate Location/Type
Fri 01:25:28 PM 30.4658 -84.4447 344° North 224 258 5,000  Level Jacksonville Center
Fri 01:26:28 PM 30.5347 -84.4361 North 253 291 8,000 2,750 Climbing Jacksonville Center
Fri 01:27:28 PM 30.6394 -84.4233 North 287 330 10,500 2,500 Climbing Jacksonville Center
Fri 01:28:28 PM 30.7436 -84.4297 357° North 336 387 13,000 2,800 Climbing Jacksonville Center
Fri 01:29:00 PM 30.6081 -84.3785 346° North  Level FlightAware Approximate
Fri 01:29:28 PM 30.8456 -84.4678 342° North 368 423 16,100  Level Jacksonville Center
Fri 01:30:00 PM 30.7065 -84.4233 346° North  Level FlightAware Approximate
Fri 01:30:28 PM 30.9536 -84.5036 344° North 385 443 18,500  Level Jacksonville Center
Fri 01:31:00 PM 30.8186 -84.4562 344° North  Level FlightAware Approximate
Fri 01:31:28 PM 31.0700 -84.5419 344° North 408 470 20,400  Level Jacksonville Center
Fri 01:32:28 PM 31.1906 -84.5828 344° North 432 497 22,600 2,050 Climbing Jacksonville Center
Fri 01:33:28 PM 31.3133 -84.6214 345° North 446 513 24,500 1,696 Climbing Jacksonville Center
Fri 01:35:39 PM 31.5883 -84.7167 344° North 446 513 28,000 1,105 Climbing Atlanta Center
Fri 01:36:38 PM 31.6967 -84.7517 345° North 426 490 28,000 -400 Level Atlanta Center
Fri 01:37:39 PM 31.8028 -84.7892 343° North 408 470 27,200 -893 Descending Atlanta Center
Fri 01:38:39 PM 31.9047 -84.8217 345° North 391 450 26,200 -1,350 Descending Atlanta Center
Fri 01:39:39 PM 32.0089 -84.8569 344° North 384 442 24,500 -1,100 Descending Atlanta Center
Fri 01:40:39 PM 32.1194 -84.8972 343° North 389 448 24,000 -500 Descending Atlanta Center
Fri 01:41:39 PM 32.2297 -84.9325 345° North 401 461 23,500 -500 Descending Atlanta Center
Fri 01:42:39 PM 32.3317 -84.9606 347° North 401 461 23,000 -833 Descending Atlanta Center
Fri 01:44:00 PM 32.4029 -84.9796 347° North  Level FlightAware Approximate
Fri 01:44:39 PM 32.5883 -84.9881 347° North 432 497 21,000  Level Atlanta Center
Fri 01:45:39 PM 32.7072 -84.9967 357° North 438 504 21,000 -250 Level Atlanta Center
Fri 01:46:39 PM 32.8303 -85.0128 354° North 438 504 20,500 -950 Descending Atlanta Center
Fri 01:47:39 PM 32.9533 -85.0192 358° North 444 511 19,100 -1,900 Descending Atlanta Center
Fri 01:48:39 PM 33.0703 -85.0278 356° North 432 497 16,700 -2,400 Descending Atlanta Center
Fri 01:49:39 PM 33.1831 -85.0217 North 411 473 14,300 -1,800 Descending Atlanta Center
Fri 01:50:39 PM 33.2692 -84.9258 43° Northeast 389 448 13,100 -1,100 Descending Atlanta Center
Fri 01:51:39 PM 33.3450 -84.8197 49° Northeast 399 459 12,100 -688 Descending Atlanta Center
Fri 01:52:15 PM 33.4000 -84.7500 47° Northeast 402 463 12,000  Descending Atlanta TRACON
Fri 01:53:15 PM 33.4500 -84.6667 54° Northeast 333 383 12,100 52 Climbing Atlanta TRACON
Fri 01:54:10 PM 33.5000 -84.6000 48° Northeast 284 327 12,100 -263 Level Atlanta TRACON
Fri 01:55:09 PM 33.5500 -84.5167 54° Northeast 281 323 11,600 -1,714 Descending Atlanta TRACON
Fri 01:56:09 PM 33.5500 -84.4333 90° East 275 316 8,700 -2,300 Descending Atlanta TRACON
Fri 01:57:09 PM 33.5500 -84.3333 90° East 265 305 7,000 -1,930 Descending Atlanta TRACON
Fri 01:58:04 PM 33.5500 -84.2667 90° East 258 297 5,000 -1,800 Descending Atlanta TRACON
Fri 01:59:09 PM 33.5500 -84.1833 90° East 210 242 3,400 -912 Descending Atlanta TRACON
Fri 02:00:09 PM 33.5833 -84.1667 23° Northeast 191 220 3,100 -149 Descending Atlanta TRACON
Fri 02:01:10 PM 33.6167 -84.2167 309° West 174 200 3,100  Level Atlanta TRACON
Fri 02:02:09 PM 33.6167 -84.2667 270° West 172 198 3,100 -250 Level Atlanta TRACON
Fri 02:03:10 PM 33.6167 -84.3167 270° West 163 188 2,600 -595 Descending Atlanta TRACON
Fri 02:04:10 PM 33.6167 -84.3667 270° West 139 160 1,900 -737 Descending Atlanta TRACON
Fri 02:05:04 PM 33.6167 -84.4167 270° West 147 169 1,200 -778 Descending Atlanta TRACON
Fri 02:07:00 PM 33.6333 -84.4167 292° West  Level FlightAware Approximate

Login

Don't have an account? Register now (free) for customized features, flight alerts, and more!